Time;durP1;ratioP1;P1;durP2;ratioP2;P2;SDS_P1;SDS_P2;PMS_P1;PMS_P2;Temp;Humidity;BMP_temperature;BMP_pressure;BME280_temperature;BME280_humidity;BME280_pressure;Samples;Min_cycle;Max_cycle;Signal;HPM_P1;HPM_P2
2022/01/23 00:02:02;;;;;;;22.42;14.50;;;;;;;18.78;52.95;98197.00;10418566;28;20040;-22
2022/01/23 00:07:06;;;;;;;23.88;15.65;;;;;;;18.81;53.16;98191.97;10440161;28;20040;-22
2022/01/23 00:12:15;;;;;;;24.40;16.42;;;;;;;18.79;53.03;98186.91;10437517;28;20044;-22
2022/01/23 00:17:20;;;;;;;19.08;14.82;;;;;;;18.80;53.06;98190.28;10421643;28;20037;-22
2022/01/23 00:22:26;;;;;;;27.58;15.77;;;;;;;18.83;52.97;98196.28;10446591;28;20128;-22
2022/01/23 00:32:45;;;;;;;19.33;14.57;;;;;;;18.81;53.14;98191.97;10454603;28;20090;-23
2022/01/23 00:37:45;;;;;;;22.17;15.05;;;;;;;18.83;52.91;98200.50;10418038;28;20086;-22
2022/01/23 00:42:46;;;;;;;21.83;14.68;;;;;;;18.81;52.92;98197.06;10418845;28;20029;-22
2022/01/23 00:47:46;;;;;;;21.73;15.23;;;;;;;18.80;52.98;98191.16;10410293;28;20041;-22
2022/01/23 00:52:47;;;;;;;20.27;14.18;;;;;;;18.79;52.88;98186.91;10411688;28;20124;-22
2022/01/23 00:57:47;;;;;;;20.35;14.07;;;;;;;18.80;52.77;98190.28;10437672;28;20032;-22
2022/01/23 01:02:48;;;;;;;19.45;13.82;;;;;;;18.81;52.90;98180.16;10448084;28;20106;-22
2022/01/23 01:07:49;;;;;;;19.50;14.40;;;;;;;18.80;53.00;98185.19;10412390;28;20041;-22
2022/01/23 01:12:52;;;;;;;18.43;14.37;;;;;;;18.78;53.17;98182.66;10410103;28;20384;-22
2022/01/23 01:34:38;;;;;;;16.48;12.55;;;;;;;18.81;52.81;98181.84;10447377;28;20037;-22
2022/01/23 01:39:06;;;;;;;17.65;13.45;;;;;;;18.78;53.22;98182.66;10406929;28;20060;-22
2022/01/23 01:44:07;;;;;;;16.55;13.07;;;;;;;18.79;53.14;98173.34;10448821;28;20055;-22
2022/01/23 01:49:30;;;;;;;17.90;13.18;;;;;;;18.80;53.04;98170.84;10440114;28;20037;-22
2022/01/23 01:54:33;;;;;;;21.08;13.32;;;;;;;18.79;53.21;98168.28;10409271;28;20041;-22
2022/01/23 02:10:18;;;;;;;20.77;13.30;;;;;;;18.75;52.83;98151.28;10414827;28;20082;-22
2022/01/23 03:02:48;;;;;;;15.02;11.80;;;;;;;18.62;52.94;98118.84;10410240;28;20025;-22
2022/01/23 03:08:04;;;;;;;17.40;11.27;;;;;;;18.81;53.06;98146.31;10449172;28;20238;-22
2022/01/23 03:24:20;;;;;;;16.10;10.50;;;;;;;18.75;53.60;98151.28;10451971;28;20446;-22
2022/01/23 03:29:24;;;;;;;22.17;11.50;;;;;;;18.76;53.05;98143.69;10414080;28;20124;-22
2022/01/23 03:34:26;;;;;;;16.80;11.15;;;;;;;18.78;53.19;98141.19;10423069;28;20033;-22
2022/01/23 03:39:27;;;;;;;17.02;11.45;;;;;;;18.81;53.07;98146.31;10455376;28;20276;-22
2022/01/23 03:44:27;;;;;;;15.63;11.23;;;;;;;18.79;52.99;98133.63;10414441;28;20095;-22
2022/01/23 03:49:31;;;;;;;15.75;11.13;;;;;;;18.71;53.15;98114.84;10427239;28;20059;-22
2022/01/23 03:54:37;;;;;;;15.07;11.30;;;;;;;18.78;53.41;98121.75;10453234;28;20526;-22
2022/01/23 03:59:38;;;;;;;16.83;10.73;;;;;;;18.78;52.88;98115.81;10456069;28;20418;-22
2022/01/23 04:04:41;;;;;;;21.52;12.77;;;;;;;18.71;53.47;98119.03;10438232;28;20033;-22
2022/01/23 04:09:46;;;;;;;13.90;11.15;;;;;;;18.77;53.36;98111.56;10412696;28;20070;-22
2022/01/23 04:14:54;;;;;;;14.05;10.70;;;;;;;18.76;53.18;98113.22;10412739;28;20524;-22
2022/01/23 04:20:19;;;;;;;12.75;9.60;;;;;;;18.78;53.10;98120.88;10412628;28;20043;-22
2022/01/23 05:07:45;;;;;;;13.45;9.57;;;;;;;18.80;52.79;98164.91;10444557;28;20123;-22
2022/01/23 05:12:53;;;;;;;14.35;10.18;;;;;;;18.78;53.04;98162.34;10434814;28;20519;-22
2022/01/23 05:17:54;;;;;;;13.82;9.63;;;;;;;18.81;52.66;98161.53;10415706;28;20179;-23
2022/01/23 05:23:00;;;;;;;11.67;9.17;;;;;;;18.79;52.70;98169.13;10451536;28;20044;-23
2022/01/23 05:28:01;;;;;;;13.30;9.43;;;;;;;18.79;52.78;98168.28;10420563;28;20496;-23
2022/01/23 05:33:02;;;;;;;16.02;9.63;;;;;;;18.77;52.86;98157.22;10409683;28;20034;-22
2022/01/23 05:38:03;;;;;;;13.52;9.35;;;;;;;18.74;53.17;98169.88;10446319;28;20052;-22
2022/01/23 05:43:04;;;;;;;12.03;9.10;;;;;;;18.76;52.57;98180.91;10450678;28;20036;-22
2022/01/23 05:48:08;;;;;;;13.45;8.95;;;;;;;18.79;52.54;98178.41;10450399;28;20409;-22
2022/01/23 05:53:27;;;;;;;12.77;8.50;;;;;;;18.77;52.34;98180.06;10412283;28;20133;-22
2022/01/23 05:58:56;;;;;;;10.90;8.48;;;;;;;18.77;52.46;98175.00;10444493;28;20068;-22
2022/01/23 06:04:07;;;;;;;10.85;8.13;;;;;;;18.75;52.52;98151.28;10446290;28;20033;-22
2022/01/23 06:09:21;;;;;;;11.68;8.68;;;;;;;18.76;52.59;98140.31;10408252;28;20496;-23
2022/01/23 06:14:21;;;;;;;11.15;8.88;;;;;;;18.75;52.52;98141.13;10408727;28;20033;-22
2022/01/23 06:19:21;;;;;;;11.10;8.45;;;;;;;18.70;52.98;98142.69;10423472;28;20380;-22
2022/01/23 06:24:47;;;;;;;10.90;8.40;;;;;;;18.69;53.11;98146.06;10448322;28;20033;-22
2022/01/23 06:30:01;;;;;;;10.35;7.75;;;;;;;18.77;52.70;98162.31;10409564;28;20442;-22
2022/01/23 06:35:01;;;;;;;12.88;8.88;;;;;;;18.77;52.56;98169.91;10407949;28;20171;-22
2022/01/23 06:40:03;;;;;;;11.85;8.65;;;;;;;18.73;52.81;98173.19;10444963;28;20029;-22
2022/01/23 06:45:23;;;;;;;11.60;7.80;;;;;;;18.77;52.79;98173.28;10408808;28;20045;-22
2022/01/23 06:50:24;;;;;;;12.27;8.73;;;;;;;18.74;52.85;98164.78;10415904;28;20029;-23
2022/01/23 06:55:26;;;;;;;12.05;8.93;;;;;;;18.68;53.20;98149.44;10409521;28;20061;-22
2022/01/23 07:00:32;;;;;;;11.82;8.52;;;;;;;18.68;53.28;98155.34;10385334;28;20026;-22
2022/01/23 07:05:36;;;;;;;13.23;9.70;;;;;;;18.73;53.45;98170.66;10385140;28;20038;-23
2022/01/23 07:10:46;;;;;;;11.40;8.63;;;;;;;18.74;53.19;98174.94;10406833;28;20037;-22
2022/01/23 07:16:10;;;;;;;16.85;9.48;;;;;;;18.76;53.35;98178.38;10397299;28;20057;-22
2022/01/23 07:21:29;;;;;;;16.17;9.38;;;;;;;18.61;52.19;98203.38;10431408;28;20053;-22
2022/01/23 07:26:30;;;;;;;14.63;9.00;;;;;;;18.64;52.97;98189.09;10429632;28;20492;-22
2022/01/23 07:36:37;;;;;;;11.30;8.18;;;;;;;18.73;52.62;98229.88;10447727;28;20041;-22
2022/01/23 07:41:51;;;;;;;18.85;10.10;;;;;;;18.66;53.13;98211.97;10431257;28;20061;-22
2022/01/23 07:47:17;;;;;;;11.13;8.65;;;;;;;18.74;53.13;98225.69;10433069;28;20319;-22
2022/01/23 07:52:30;;;;;;;11.50;6.78;;;;;;;18.70;51.56;98227.28;10418516;28;20082;-22
2022/01/23 07:57:52;;;;;;;23.15;10.45;;;;;;;18.97;45.44;98227.03;10445935;28;20033;-22
2022/01/23 08:03:09;;;;;;;17.48;10.35;;;;;;;18.73;47.61;98224.81;10436516;28;20036;-22
2022/01/23 08:08:09;;;;;;;12.88;10.40;;;;;;;18.64;49.65;98223.72;10407342;28;20047;-23
2022/01/23 08:13:20;;;;;;;13.38;10.63;;;;;;;18.69;49.52;98230.66;10425361;28;20065;-22
2022/01/23 08:18:21;;;;;;;14.65;10.95;;;;;;;18.71;49.43;98230.66;10422324;28;20060;-22
2022/01/23 08:23:21;;;;;;;14.27;11.02;;;;;;;18.66;50.16;98224.66;10456071;28;20487;-22
2022/01/23 08:28:22;;;;;;;11.68;10.18;;;;;;;18.70;50.33;98226.41;10422646;28;20025;-31
2022/01/23 08:33:22;;;;;;;14.13;10.77;;;;;;;18.73;50.82;98231.56;10413543;28;20488;-23
2022/01/23 08:38:24;;;;;;;13.20;10.33;;;;;;;18.80;49.59;98230.88;10414713;28;20037;-22
2022/01/23 08:43:25;;;;;;;13.27;8.38;;;;;;;18.68;49.39;98235.69;10421742;28;20296;-23
2022/01/23 08:48:25;;;;;;;12.00;8.57;;;;;;;18.62;48.08;98238.06;10415728;28;20063;-23
2022/01/23 08:53:25;;;;;;;8.70;7.73;;;;;;;18.66;47.71;98229.72;10454418;28;20041;-23
2022/01/23 08:58:26;;;;;;;8.45;7.50;;;;;;;18.70;47.88;98228.97;10452276;28;20175;-23
2022/01/23 09:03:26;;;;;;;11.88;9.35;;;;;;;18.71;50.51;98228.13;10453722;28;20173;-23
2022/01/23 09:08:27;;;;;;;10.17;8.30;;;;;;;18.70;50.78;98231.50;10418808;28;20496;-23
2022/01/23 09:18:30;;;;;;;16.25;9.18;;;;;;;18.74;50.97;98240.91;10411718;28;20094;-23
2022/01/23 09:23:32;;;;;;;15.87;9.37;;;;;;;18.75;51.11;98242.63;10443897;28;20089;-23
2022/01/23 09:28:33;;;;;;;16.90;9.80;;;;;;;18.74;51.09;98238.38;10417759;28;20384;-23
2022/01/23 09:33:34;;;;;;;17.52;9.32;;;;;;;18.68;51.30;98245.84;10413056;28;20400;-23
2022/01/23 09:38:34;;;;;;;21.60;10.15;;;;;;;18.72;51.27;98243.41;10453226;28;20025;-23
2022/01/23 09:43:39;;;;;;;10.63;7.97;;;;;;;18.77;51.57;98225.75;10450285;28;20037;-23
2022/01/23 09:48:46;;;;;;;21.67;9.95;;;;;;;18.72;52.22;98232.38;10439740;28;20060;-23
2022/01/23 09:53:47;;;;;;;12.57;7.53;;;;;;;18.53;46.76;98230.25;10410367;28;20068;-23
2022/01/23 09:58:48;;;;;;;15.75;8.80;;;;;;;18.77;50.38;98235.88;10444606;28;20047;-23
2022/01/23 10:03:50;;;;;;;19.42;8.48;;;;;;;18.82;50.46;98235.16;10447664;28;20410;-23
2022/01/23 10:08:51;;;;;;;21.85;9.35;;;;;;;18.72;51.03;98245.06;10451340;28;20067;-23
2022/01/23 10:13:52;;;;;;;25.77;6.07;;;;;;;18.35;43.54;98229.81;10413217;28;20079;-23
2022/01/23 10:18:53;;;;;;;13.65;4.38;;;;;;;17.66;41.79;98215.31;10409807;28;20128;-18
2022/01/23 10:23:54;;;;;;;17.60;5.50;;;;;;;17.92;45.34;98217.69;10409234;28;20087;-20
2022/01/23 10:29:32;;;;;;;8.52;5.45;;;;;;;18.41;48.55;98204.59;10444355;28;20491;-22
2022/01/23 10:34:50;;;;;;;12.07;6.45;;;;;;;18.55;48.83;98188.00;10444923;28;20069;-23
2022/01/23 10:39:50;;;;;;;11.43;6.38;;;;;;;18.59;49.36;98195.72;10426373;28;20538;-22
2022/01/23 10:50:27;;;;;;;9.82;6.40;;;;;;;18.61;49.98;98152.66;10446661;28;20215;-23
2022/01/23 10:55:31;;;;;;;8.18;5.78;;;;;;;18.60;50.28;98156.84;10448220;28;20631;-23
2022/01/23 11:00:36;;;;;;;7.45;5.05;;;;;;;18.59;50.63;98156.84;10449874;28;20244;-22
2022/01/23 11:05:41;;;;;;;7.97;5.72;;;;;;;18.56;50.76;98149.13;10436134;28;20025;-22
2022/01/23 11:11:09;;;;;;;7.43;5.22;;;;;;;18.56;50.86;98139.88;10407739;28;20049;-23
2022/01/23 11:21:53;;;;;;;6.22;5.22;;;;;;;18.60;51.07;98131.47;10420307;28;20044;-23
2022/01/23 11:27:01;;;;;;;6.93;4.80;;;;;;;18.59;51.14;98123.84;10447287;28;20280;-23
2022/01/23 11:32:02;;;;;;;7.63;5.30;;;;;;;18.62;51.14;98113.78;10448649;28;20040;-23
2022/01/23 11:37:03;;;;;;;8.85;5.28;;;;;;;18.63;51.07;98125.63;10447298;28;20041;-23
2022/01/23 11:58:05;;;;;;;18.88;5.72;;;;;;;18.77;50.87;98103.94;10450768;28;20041;-23
2022/01/23 12:03:18;;;;;;;13.38;5.07;;;;;;;18.73;51.83;98097.94;10456099;28;20082;-23
2022/01/23 12:08:28;;;;;;;13.57;6.13;;;;;;;18.73;52.37;98097.09;10439003;28;20503;-23
2022/01/23 12:18:38;;;;;;;5.75;4.40;;;;;;;18.67;52.56;98096.97;10393049;28;20044;-22
2022/01/23 12:23:56;;;;;;;7.30;4.30;;;;;;;18.64;52.48;98095.22;10397223;28;20026;-23
2022/01/23 12:29:13;;;;;;;10.43;4.85;;;;;;;18.68;52.22;98091.06;10408397;28;20045;-23
2022/01/23 12:34:14;;;;;;;7.43;4.50;;;;;;;18.69;52.64;98075.03;10413025;28;20463;-23
2022/01/23 12:39:18;;;;;;;6.05;4.82;;;;;;;18.73;52.71;98066.63;10414788;28;20091;-23
2022/01/23 12:44:22;;;;;;;7.82;4.53;;;;;;;18.69;53.27;98064.88;10452164;28;20050;-23
2022/01/23 12:49:30;;;;;;;8.00;4.20;;;;;;;18.74;53.64;98058.22;10444854;28;20103;-23
2022/01/23 12:54:32;;;;;;;6.03;4.45;;;;;;;18.75;53.54;98054.88;10408332;28;20136;-23
2022/01/23 12:59:34;;;;;;;5.63;4.82;;;;;;;18.74;52.96;98053.16;10392638;28;20025;-23
2022/01/23 13:04:41;;;;;;;8.02;5.03;;;;;;;18.79;53.25;98054.94;10402684;28;20516;-23
2022/01/23 13:30:51;;;;;;;14.35;3.03;;;;;;;18.21;43.54;98040.97;10447414;28;20461;-19
2022/01/23 13:35:53;;;;;;;4.40;3.03;;;;;;;18.01;45.77;98034.63;10451987;28;20113;-21
2022/01/23 13:41:00;;;;;;;8.45;5.95;;;;;;;18.48;51.13;98024.72;10442549;28;20043;-20
2022/01/23 14:07:10;;;;;;;11.23;4.47;;;;;;;18.82;53.23;98022.00;10428715;28;20407;-22
2022/01/23 14:12:16;;;;;;;10.68;4.68;;;;;;;18.86;53.39;98022.94;10428913;28;20048;-22
2022/01/23 14:17:17;;;;;;;7.00;4.10;;;;;;;18.93;52.14;98028.13;10408408;28;20041;-24
2022/01/23 14:22:26;;;;;;;9.00;4.05;;;;;;;18.94;51.75;98031.56;10396234;28;20119;-22
2022/01/23 14:27:27;;;;;;;7.28;3.78;;;;;;;18.82;52.97;98028.78;10391675;28;20044;-22
2022/01/23 14:37:31;;;;;;;8.32;5.00;;;;;;;18.88;52.69;98021.28;10393850;28;20037;-22
2022/01/23 14:42:31;;;;;;;43.63;20.60;;;;;;;18.81;53.46;98012.69;10404018;28;20041;-24
2022/01/23 14:47:37;;;;;;;48.20;21.90;;;;;;;18.85;53.05;98016.16;10374267;28;20084;-23
2022/01/23 14:52:40;;;;;;;40.53;19.47;;;;;;;18.88;52.61;98016.19;10401706;28;20367;-22
2022/01/23 14:57:41;;;;;;;29.98;15.50;;;;;;;18.81;52.39;98015.22;10405627;28;20201;-23
2022/01/23 15:02:42;;;;;;;27.20;12.60;;;;;;;18.85;51.93;98001.75;10362770;28;20048;-23
2022/01/23 15:07:42;;;;;;;22.52;12.70;;;;;;;18.92;51.77;98010.38;10397746;28;20129;-23
2022/01/23 15:12:43;;;;;;;30.52;11.48;;;;;;;18.92;51.81;98013.75;10417582;28;20091;-23
2022/01/23 15:17:43;;;;;;;15.02;5.60;;;;;;;18.55;44.50;98003.72;10407601;28;20503;-23
2022/01/23 15:22:45;;;;;;;21.63;10.27;;;;;;;18.78;51.70;98014.31;10445603;28;20047;-23
2022/01/23 15:27:46;;;;;;;16.17;9.65;;;;;;;18.79;51.92;98014.34;10427713;28;20304;-23
2022/01/23 15:32:46;;;;;;;19.13;9.52;;;;;;;18.83;51.75;98013.56;10416583;28;20503;-23
2022/01/23 15:37:47;;;;;;;14.02;8.32;;;;;;;18.83;51.97;98002.59;10445292;28;20040;-23
2022/01/23 15:42:50;;;;;;;16.35;7.57;;;;;;;18.86;52.00;98008.56;10455331;28;20043;-23
2022/01/23 15:47:51;;;;;;;17.33;7.38;;;;;;;18.83;52.23;97992.44;10456753;28;20450;-22
2022/01/23 15:52:52;;;;;;;17.90;7.55;;;;;;;18.84;51.96;97994.13;10454773;28;20120;-24
2022/01/23 15:57:52;;;;;;;14.33;7.00;;;;;;;18.87;51.83;97994.19;10428009;28;20111;-23
2022/01/23 16:02:53;;;;;;;11.00;6.23;;;;;;;18.80;52.28;97992.34;10414954;28;20771;-25
2022/01/23 16:07:53;;;;;;;24.63;7.13;;;;;;;18.68;50.08;97997.22;10446453;28;20377;-23
2022/01/23 16:12:54;;;;;;;18.95;6.53;;;;;;;18.80;52.19;97999.97;10426998;28;20304;-22
2022/01/23 16:17:54;;;;;;;15.82;7.00;;;;;;;18.81;52.48;98009.28;10410149;28;20141;-22
2022/01/23 16:22:55;;;;;;;18.10;5.73;;;;;;;18.83;52.15;98007.66;10412544;28;20555;-23
2022/01/23 16:27:56;;;;;;;14.82;6.18;;;;;;;18.80;52.24;98008.44;10441280;28;20298;-23
2022/01/23 16:32:56;;;;;;;15.40;6.47;;;;;;;18.84;52.82;98009.38;10454752;28;20036;-22
2022/01/23 16:37:56;;;;;;;13.55;6.22;;;;;;;18.73;52.77;97996.47;10409391;28;20106;-24
2022/01/23 16:42:57;;;;;;;11.33;6.30;;;;;;;18.83;52.93;98017.81;10410950;28;20046;-23
2022/01/23 16:47:58;;;;;;;14.35;6.10;;;;;;;18.79;53.17;98009.28;10418693;28;20072;-22
2022/01/23 16:52:58;;;;;;;9.10;5.80;;;;;;;18.84;52.98;98020.34;10454258;28;20041;-22
2022/01/23 16:58:00;;;;;;;9.82;5.90;;;;;;;18.85;52.58;98029.69;10424592;28;20120;-23
2022/01/23 17:03:02;;;;;;;11.82;5.82;;;;;;;18.84;53.09;98020.34;10438609;28;20484;-22
2022/01/23 17:08:02;;;;;;;10.32;5.22;;;;;;;18.81;53.31;98016.91;10453441;28;20119;-24
2022/01/23 17:13:05;;;;;;;13.10;6.60;;;;;;;18.82;53.59;98016.94;10436072;28;20599;-26
2022/01/23 17:18:07;;;;;;;10.80;5.97;;;;;;;18.83;53.55;98027.97;10415304;28;20028;-23
2022/01/23 17:23:07;;;;;;;10.85;6.85;;;;;;;18.83;53.73;98033.03;10453249;28;20155;-24
2022/01/23 17:28:08;;;;;;;11.60;6.73;;;;;;;18.82;53.70;98031.31;10406097;28;20401;-25
2022/01/23 17:33:08;;;;;;;9.88;7.18;;;;;;;18.84;53.37;98034.75;10383147;28;20358;-23
2022/01/23 17:38:09;;;;;;;11.57;7.03;;;;;;;18.82;53.44;98037.25;10407449;28;20051;-23
2022/01/23 17:43:09;;;;;;;7.20;5.85;;;;;;;18.82;53.52;98026.25;10393193;28;20792;-24
2022/01/23 17:48:31;;;;;;;8.63;6.33;;;;;;;18.83;53.39;98022.88;10374034;28;20045;-23
2022/01/23 17:53:34;;;;;;;14.25;6.72;;;;;;;18.83;53.07;98028.78;10451639;28;20283;-24
2022/01/23 17:58:35;;;;;;;8.73;5.97;;;;;;;18.84;53.02;98025.44;10416802;28;20407;-22
2022/01/23 18:03:38;;;;;;;8.73;6.28;;;;;;;18.87;53.33;98034.78;10410307;28;20116;-23
2022/01/23 18:08:40;;;;;;;10.30;5.15;;;;;;;18.87;53.08;98029.72;10447263;28;20492;-24
2022/01/23 18:13:54;;;;;;;11.88;7.47;;;;;;;18.87;53.54;98032.25;10420990;28;20104;-23
2022/01/23 18:18:57;;;;;;;8.02;5.50;;;;;;;18.92;53.33;98035.75;10409261;28;20124;-22
2022/01/23 18:23:57;;;;;;;10.35;5.05;;;;;;;18.89;53.48;98034.00;10409746;28;20059;-23
2022/01/23 18:28:58;;;;;;;7.83;5.33;;;;;;;18.88;53.80;98033.97;10422935;28;20393;-23
2022/01/23 18:33:59;;;;;;;7.57;5.00;;;;;;;18.85;53.79;98036.44;10413205;28;20295;-23
2022/01/23 18:39:01;;;;;;;9.95;5.70;;;;;;;18.82;53.60;98031.31;10450744;28;20370;-23
2022/01/23 18:44:02;;;;;;;7.15;5.07;;;;;;;18.85;53.75;98041.53;10448709;28;20119;-22
2022/01/23 18:49:03;;;;;;;9.23;5.10;;;;;;;18.88;53.73;98039.91;10385911;28;20124;-23
2022/01/23 18:59:13;;;;;;;10.63;5.63;;;;;;;18.89;53.17;98035.66;10368798;28;20030;-23
2022/01/23 19:04:14;;;;;;;4.88;4.10;;;;;;;18.64;53.60;97996.28;10364456;28;20034;-23
2022/01/23 19:09:27;;;;;;;7.43;5.13;;;;;;;18.83;52.66;98030.50;10406204;28;20041;-23
2022/01/23 19:14:27;;;;;;;7.55;4.15;;;;;;;18.89;52.94;98040.75;10380674;28;20041;-23
2022/01/23 19:19:28;;;;;;;6.47;5.20;;;;;;;18.88;52.84;98033.97;10380720;28;20033;-22
2022/01/23 19:24:29;;;;;;;6.40;4.78;;;;;;;18.86;53.10;98030.53;10409017;28;20082;-24
2022/01/23 19:29:33;;;;;;;7.55;5.43;;;;;;;18.84;53.28;98033.03;10392385;28;20041;-23
2022/01/23 19:34:36;;;;;;;5.32;4.43;;;;;;;18.86;52.89;98040.69;10391816;28;20062;-23
2022/01/23 19:39:40;;;;;;;5.78;4.43;;;;;;;18.87;52.86;98034.78;10377438;28;20087;-24
2022/01/23 19:44:51;;;;;;;6.05;3.85;;;;;;;18.85;52.83;98039.00;10377390;28;20155;-23
2022/01/23 19:49:51;;;;;;;6.70;4.43;;;;;;;18.85;52.73;98039.00;10368446;28;20041;-23
2022/01/23 19:54:52;;;;;;;5.00;4.50;;;;;;;18.85;52.51;98039.81;10383198;28;20049;-23
2022/01/23 19:59:52;;;;;;;5.57;3.73;;;;;;;18.88;52.43;98036.50;10373675;28;20044;-22
2022/01/23 20:04:53;;;;;;;6.45;4.25;;;;;;;18.83;52.75;98023.72;10384336;28;20042;-23
2022/01/23 20:10:09;;;;;;;6.35;4.32;;;;;;;18.81;52.89;98025.38;10386477;28;20032;-23
2022/01/23 20:15:13;;;;;;;5.00;3.60;;;;;;;18.80;52.93;98040.56;10395385;28;20033;-24
2022/01/23 20:20:14;;;;;;;5.22;3.90;;;;;;;18.79;52.62;98036.31;10416601;28;20091;-24
2022/01/23 20:25:15;;;;;;;6.50;3.50;;;;;;;18.78;52.86;98024.47;10381254;28;20088;-23
2022/01/23 20:30:18;;;;;;;5.22;3.67;;;;;;;18.84;52.72;98022.06;10414603;28;20087;-22
2022/01/23 20:35:18;;;;;;;4.90;3.65;;;;;;;18.81;52.70;98016.91;10412253;28;20041;-22
2022/01/23 20:40:21;;;;;;;5.00;3.50;;;;;;;18.75;52.40;98011.72;10424727;28;20537;-23
2022/01/23 20:45:22;;;;;;;7.47;3.83;;;;;;;18.85;52.65;98031.38;10410000;28;20110;-24
2022/01/23 20:50:25;;;;;;;4.45;3.92;;;;;;;18.82;52.39;98016.09;10384059;28;20121;-24
2022/01/23 20:55:26;;;;;;;4.65;3.35;;;;;;;18.88;52.62;98026.34;10388326;28;20127;-24
2022/01/23 21:00:26;;;;;;;4.43;3.72;;;;;;;18.83;52.76;98036.41;10454886;28;20512;-24
2022/01/23 21:05:27;;;;;;;8.30;4.03;;;;;;;18.82;52.92;98031.31;10433450;28;20492;-24
2022/01/23 21:10:27;;;;;;;6.57;3.55;;;;;;;18.82;52.62;98031.31;10413796;28;20556;-24
2022/01/23 21:20:47;;;;;;;6.45;3.22;;;;;;;18.86;53.31;98038.16;10430388;28;20167;-23
2022/01/23 21:32:13;;;;;;;10.20;3.42;;;;;;;18.89;52.68;98025.50;10378640;28;20038;-23
2022/01/23 21:42:04;;;;;;;7.78;4.88;;;;;;;18.86;53.19;98017.84;10442290;28;20041;-23
2022/01/23 21:47:04;;;;;;;9.93;4.53;;;;;;;18.81;53.42;98015.22;10433405;28;20029;-23
2022/01/23 21:52:05;;;;;;;6.85;3.92;;;;;;;18.81;53.51;98019.44;10446785;28;20037;-24
2022/01/23 21:57:06;;;;;;;5.97;3.55;;;;;;;18.82;53.19;98026.25;10429968;28;20033;-23
2022/01/23 22:02:08;;;;;;;8.57;3.78;;;;;;;18.73;53.58;98014.22;10410429;28;20041;-23
2022/01/23 22:07:09;;;;;;;7.53;3.80;;;;;;;18.78;53.51;98015.19;10410569;28;20519;-23
2022/01/23 22:17:12;;;;;;;7.30;3.70;;;;;;;18.73;53.60;98013.34;10410627;28;20480;-22
2022/01/23 22:22:33;;;;;;;7.30;3.22;;;;;;;18.69;53.47;97994.72;10410250;28;20044;-23
2022/01/23 22:27:33;;;;;;;7.22;3.30;;;;;;;18.75;53.37;98014.28;10410510;28;20038;-23
2022/01/23 22:32:34;;;;;;;8.43;3.20;;;;;;;18.73;53.38;98005.75;10410470;28;20042;-23
2022/01/23 22:37:37;;;;;;;7.50;3.53;;;;;;;18.73;53.38;97998.13;10448019;28;20041;-23
2022/01/23 22:42:38;;;;;;;6.28;3.17;;;;;;;18.70;53.29;98001.50;10449608;28;20171;-23
2022/01/23 22:47:39;;;;;;;8.45;3.47;;;;;;;18.73;53.42;97995.59;10429204;28;20029;-23
2022/01/23 22:52:39;;;;;;;6.30;3.33;;;;;;;18.76;53.31;97996.50;10450676;28;20040;-22
2022/01/23 22:57:39;;;;;;;5.60;4.25;;;;;;;18.74;53.27;97989.72;10423355;28;20057;-23
2022/01/23 23:02:40;;;;;;;4.60;3.13;;;;;;;18.73;53.44;97990.53;10409004;28;20033;-23
2022/01/23 23:07:40;;;;;;;5.93;4.00;;;;;;;18.75;53.36;98006.66;10440774;28;20043;-23
2022/01/23 23:12:40;;;;;;;6.03;3.27;;;;;;;18.77;53.35;98010.91;10422931;28;20083;-24
2022/01/23 23:17:41;;;;;;;5.00;4.00;;;;;;;18.76;53.48;98005.81;10409951;28;20045;-22
2022/01/23 23:22:41;;;;;;;3.80;2.80;;;;;;;18.73;53.35;98006.63;10447097;28;20045;-24
2022/01/23 23:27:45;;;;;;;5.90;3.10;;;;;;;18.73;53.53;98005.75;10422535;28;20041;-25
2022/01/23 23:32:45;;;;;;;4.53;2.97;;;;;;;18.72;53.76;98004.91;10408374;28;20276;-23
2022/01/23 23:37:46;;;;;;;4.78;2.88;;;;;;;18.75;53.50;97996.50;10446032;28;20634;-23
2022/01/23 23:43:17;;;;;;;4.18;3.08;;;;;;;18.75;53.49;97988.91;10453674;28;20061;-23
2022/01/23 23:48:07;;;;;;;4.82;2.70;;;;;;;18.73;53.41;97985.44;10428300;28;20064;-23
2022/01/23 23:53:08;;;;;;;6.07;2.70;;;;;;;18.75;53.68;97983.81;10415824;28;20389;-22
2022/01/23 23:58:08;;;;;;;3.80;2.92;;;;;;;18.75;53.60;97988.91;10445760;28;20044;-24
